Time;durP1;ratioP1;P1;durP2;ratioP2;P2;SDS_P1;SDS_P2;PMS_P1;PMS_P2;Temp;Humidity;BMP_temperature;BMP_pressure;BME280_temperature;BME280_humidity;BME280_pressure;Samples;Min_cycle;Max_cycle;Signal;HPM_P1;HPM_P2
2023/07/09 00:02:12;;;;;;;4.22;1.95;;;;;;;;;;5063635;28;20591;-64
2023/07/09 00:04:39;;;;;;;2.10;2.00;;;;;;;;;;5067771;28;20758;-63
2023/07/09 00:07:07;;;;;;;1.65;1.60;;;;;;;;;;5066569;28;20206;-64
2023/07/09 00:09:34;;;;;;;1.92;1.83;;;;;;;;;;5064591;28;20217;-64
2023/07/09 00:12:01;;;;;;;3.47;2.10;;;;;;;;;;5062272;28;20212;-62
2023/07/09 00:14:28;;;;;;;2.03;1.92;;;;;;;;;;5053877;28;20330;-63
2023/07/09 00:16:55;;;;;;;2.45;2.13;;;;;;;;;;5047102;28;20264;-62
2023/07/09 00:19:24;;;;;;;2.33;2.17;;;;;;;;;;5047016;28;20215;-63
2023/07/09 00:21:53;;;;;;;2.90;2.35;;;;;;;;;;5047373;28;20303;-63
2023/07/09 00:24:20;;;;;;;2.90;2.08;;;;;;;;;;5047141;28;20208;-64
2023/07/09 00:26:48;;;;;;;2.05;1.95;;;;;;;;;;5061996;28;20206;-63
2023/07/09 00:29:15;;;;;;;1.83;1.73;;;;;;;;;;5052656;28;20212;-65
2023/07/09 00:31:42;;;;;;;2.08;1.98;;;;;;;;;;5051789;28;20767;-65
2023/07/09 00:34:11;;;;;;;1.83;1.60;;;;;;;;;;5051260;28;20310;-63
2023/07/09 00:36:40;;;;;;;1.92;1.83;;;;;;;;;;5047007;28;20208;-63
2023/07/09 00:39:12;;;;;;;2.15;2.05;;;;;;;;;;5064151;28;20226;-63
2023/07/09 00:41:39;;;;;;;2.13;2.03;;;;;;;;;;5060450;28;20286;-63
2023/07/09 00:44:22;;;;;;;1.98;1.83;;;;;;;;;;5066584;28;20606;-63
2023/07/09 00:47:07;;;;;;;2.08;1.98;;;;;;;;;;5062735;28;20246;-63
2023/07/09 00:49:36;;;;;;;2.47;1.90;;;;;;;;;;5046615;28;20207;-63
2023/07/09 00:52:22;;;;;;;2.60;2.00;;;;;;;;;;5046673;28;20223;-63
2023/07/09 00:54:51;;;;;;;2.15;1.90;;;;;;;;;;5046902;28;20212;-63
2023/07/09 00:57:19;;;;;;;1.83;1.73;;;;;;;;;;5047608;28;20203;-63
2023/07/09 00:59:48;;;;;;;5.90;2.03;;;;;;;;;;5063377;28;20268;-63
2023/07/09 01:02:15;;;;;;;1.77;1.75;;;;;;;;;;5063839;28;20203;-63
2023/07/09 01:04:42;;;;;;;2.80;1.85;;;;;;;;;;5056964;28;20456;-63
2023/07/09 01:07:11;;;;;;;2.35;2.15;;;;;;;;;;5045818;28;20250;-63
2023/07/09 01:09:41;;;;;;;2.13;2.13;;;;;;;;;;5046547;28;20557;-63
2023/07/09 01:12:09;;;;;;;1.95;1.85;;;;;;;;;;5046373;28;20302;-63
2023/07/09 01:14:37;;;;;;;2.30;2.10;;;;;;;;;;5046576;28;20215;-64
2023/07/09 01:17:07;;;;;;;2.22;2.13;;;;;;;;;;5048336;28;20213;-65
2023/07/09 01:19:42;;;;;;;2.42;2.30;;;;;;;;;;5046700;28;20246;-64
2023/07/09 01:22:12;;;;;;;2.20;2.10;;;;;;;;;;5056047;28;20210;-65
2023/07/09 01:24:55;;;;;;;1.90;1.80;;;;;;;;;;5070880;28;20644;-65
2023/07/09 01:27:24;;;;;;;2.42;2.33;;;;;;;;;;5053105;28;20206;-65
2023/07/09 01:29:51;;;;;;;2.88;2.20;;;;;;;;;;5068807;28;20666;-65
2023/07/09 01:32:19;;;;;;;2.80;2.60;;;;;;;;;;5069136;28;20211;-64
2023/07/09 01:34:47;;;;;;;2.05;1.95;;;;;;;;;;5057246;28;20207;-64
2023/07/09 01:37:17;;;;;;;2.38;2.17;;;;;;;;;;5060249;28;20293;-65
2023/07/09 01:39:45;;;;;;;2.35;2.15;;;;;;;;;;5068624;28;20241;-65
2023/07/09 01:42:12;;;;;;;2.92;2.40;;;;;;;;;;5069437;28;20228;-64
2023/07/09 01:44:40;;;;;;;2.15;2.05;;;;;;;;;;5069142;28;20643;-64
2023/07/09 01:47:07;;;;;;;2.28;2.17;;;;;;;;;;5050230;28;20231;-65
2023/07/09 01:49:34;;;;;;;2.47;2.20;;;;;;;;;;5050655;28;20215;-64
2023/07/09 01:52:02;;;;;;;2.28;2.08;;;;;;;;;;5065788;28;20242;-64
2023/07/09 01:54:33;;;;;;;2.53;2.28;;;;;;;;;;5069555;28;20214;-64
2023/07/09 01:57:13;;;;;;;2.22;2.13;;;;;;;;;;5070169;28;20272;-64
2023/07/09 01:59:41;;;;;;;3.83;2.35;;;;;;;;;;5066455;28;20203;-64
2023/07/09 02:02:08;;;;;;;2.60;2.40;;;;;;;;;;5069861;28;20307;-64
2023/07/09 02:04:36;;;;;;;2.20;2.00;;;;;;;;;;5069681;28;20712;-64
2023/07/09 02:07:03;;;;;;;2.28;2.17;;;;;;;;;;5069688;28;20261;-64
2023/07/09 02:09:31;;;;;;;4.10;2.30;;;;;;;;;;5061820;28;20775;-64
2023/07/09 02:11:58;;;;;;;2.10;1.90;;;;;;;;;;5049681;28;20254;-64
2023/07/09 02:14:25;;;;;;;4.55;2.42;;;;;;;;;;5064224;28;20203;-65
2023/07/09 02:16:52;;;;;;;3.60;1.88;;;;;;;;;;5069815;28;20302;-65
2023/07/09 02:19:19;;;;;;;2.10;2.00;;;;;;;;;;5067559;28;20216;-64
2023/07/09 02:21:46;;;;;;;2.67;2.13;;;;;;;;;;5061813;28;20253;-65
2023/07/09 02:24:13;;;;;;;2.80;2.30;;;;;;;;;;5049695;28;20281;-64
2023/07/09 02:26:42;;;;;;;2.40;2.30;;;;;;;;;;5051165;28;20212;-64
2023/07/09 02:29:09;;;;;;;2.35;2.00;;;;;;;;;;5049292;28;20223;-64
2023/07/09 02:31:36;;;;;;;2.30;2.10;;;;;;;;;;5050451;28;20580;-64
2023/07/09 02:34:03;;;;;;;2.42;2.30;;;;;;;;;;5048563;28;20287;-64
2023/07/09 02:36:30;;;;;;;2.15;2.05;;;;;;;;;;5049376;28;20235;-64
2023/07/09 02:38:57;;;;;;;2.53;1.80;;;;;;;;;;5062877;28;20229;-64
2023/07/09 02:41:24;;;;;;;2.22;2.00;;;;;;;;;;5061122;28;20686;-64
2023/07/09 02:43:53;;;;;;;1.98;1.88;;;;;;;;;;5068943;28;20242;-64
2023/07/09 02:46:20;;;;;;;2.22;2.13;;;;;;;;;;5069230;28;20207;-64
2023/07/09 02:48:47;;;;;;;2.22;2.13;;;;;;;;;;5068038;28;20210;-64
2023/07/09 02:51:14;;;;;;;2.90;2.20;;;;;;;;;;5064628;28;20227;-64
2023/07/09 02:53:41;;;;;;;1.92;1.83;;;;;;;;;;5067523;28;20207;-64
2023/07/09 02:56:08;;;;;;;1.90;1.80;;;;;;;;;;5068652;28;20244;-64
2023/07/09 02:58:35;;;;;;;1.80;1.70;;;;;;;;;;5069111;28;20580;-64
2023/07/09 03:01:06;;;;;;;3.78;1.80;;;;;;;;;;5065276;28;20204;-65
2023/07/09 03:03:33;;;;;;;3.08;2.00;;;;;;;;;;5048842;28;20719;-64
2023/07/09 03:06:00;;;;;;;1.92;1.83;;;;;;;;;;5049933;28;20690;-64
2023/07/09 03:08:27;;;;;;;1.80;1.70;;;;;;;;;;5048910;28;20207;-64
2023/07/09 03:10:54;;;;;;;2.00;1.73;;;;;;;;;;5053451;28;20617;-64
2023/07/09 03:13:21;;;;;;;2.90;1.98;;;;;;;;;;5069410;28;20211;-64
2023/07/09 03:15:56;;;;;;;1.77;1.67;;;;;;;;;;5068437;28;20214;-64
2023/07/09 03:18:24;;;;;;;2.63;2.42;;;;;;;;;;5069130;28;20301;-64
2023/07/09 03:20:51;;;;;;;2.15;1.98;;;;;;;;;;5066769;28;20621;-64
2023/07/09 03:23:18;;;;;;;2.45;2.22;;;;;;;;;;5048956;28;20282;-64
2023/07/09 03:25:46;;;;;;;2.20;2.08;;;;;;;;;;5049045;28;20692;-64
2023/07/09 03:28:13;;;;;;;2.45;2.25;;;;;;;;;;5055379;28;20207;-65
2023/07/09 03:30:41;;;;;;;5.07;2.15;;;;;;;;;;5048687;28;20208;-65
2023/07/09 03:33:09;;;;;;;2.47;2.38;;;;;;;;;;5048674;28;20999;-64
2023/07/09 03:35:38;;;;;;;2.17;1.98;;;;;;;;;;5048787;28;20305;-64
2023/07/09 03:38:05;;;;;;;3.63;2.33;;;;;;;;;;5048763;28;20204;-64
2023/07/09 03:40:32;;;;;;;2.17;2.08;;;;;;;;;;5048670;28;20207;-64
2023/07/09 03:42:59;;;;;;;2.85;2.58;;;;;;;;;;5048387;28;20266;-65
2023/07/09 03:45:26;;;;;;;2.92;2.15;;;;;;;;;;5048490;28;20291;-64
2023/07/09 03:47:53;;;;;;;3.30;2.25;;;;;;;;;;5062715;28;20207;-65
2023/07/09 03:50:20;;;;;;;3.58;2.33;;;;;;;;;;5068435;28;20207;-65
2023/07/09 03:52:49;;;;;;;2.17;2.17;;;;;;;;;;5057624;28;20732;-64
2023/07/09 03:55:16;;;;;;;2.63;2.40;;;;;;;;;;5084270;28;20210;-65
2023/07/09 03:57:43;;;;;;;2.55;2.38;;;;;;;;;;5088838;28;20217;-64
2023/07/09 04:00:11;;;;;;;1.80;1.70;;;;;;;;;;5068376;28;20234;-64
2023/07/09 04:02:38;;;;;;;2.97;2.17;;;;;;;;;;5061782;28;20725;-65
2023/07/09 04:05:05;;;;;;;2.53;2.33;;;;;;;;;;5048191;28;20593;-65
2023/07/09 04:07:32;;;;;;;2.17;2.03;;;;;;;;;;5048184;28;20829;-64
2023/07/09 04:10:01;;;;;;;2.80;2.05;;;;;;;;;;5048192;28;20211;-65
2023/07/09 04:12:28;;;;;;;4.00;2.20;;;;;;;;;;5052880;28;20222;-64
2023/07/09 04:14:55;;;;;;;2.72;2.05;;;;;;;;;;5067046;28;20225;-64
2023/07/09 04:17:23;;;;;;;2.67;2.30;;;;;;;;;;5047712;28;20215;-65
2023/07/09 04:19:50;;;;;;;2.65;2.47;;;;;;;;;;5047540;28;20214;-64
2023/07/09 04:22:17;;;;;;;4.80;2.70;;;;;;;;;;5048555;28;20215;-64
2023/07/09 04:24:44;;;;;;;3.15;2.33;;;;;;;;;;5062284;28;20215;-64
2023/07/09 04:27:13;;;;;;;2.22;1.92;;;;;;;;;;5067288;28;20203;-65
2023/07/09 04:29:40;;;;;;;2.45;2.30;;;;;;;;;;5065582;28;20674;-64
2023/07/09 04:32:08;;;;;;;3.72;2.13;;;;;;;;;;5065250;28;20315;-65
2023/07/09 04:34:35;;;;;;;2.50;2.38;;;;;;;;;;5053897;28;20237;-64
2023/07/09 04:37:02;;;;;;;2.88;2.70;;;;;;;;;;5047499;28;20289;-64
2023/07/09 04:39:29;;;;;;;2.58;2.38;;;;;;;;;;5046849;28;20211;-64
2023/07/09 04:41:56;;;;;;;2.40;2.30;;;;;;;;;;5056525;28;20264;-64
2023/07/09 04:44:25;;;;;;;1.70;1.70;;;;;;;;;;5048148;28;20674;-65
2023/07/09 04:46:52;;;;;;;2.60;2.40;;;;;;;;;;5047948;28;20319;-64
2023/07/09 04:49:19;;;;;;;2.42;2.33;;;;;;;;;;5046622;28;20303;-64
2023/07/09 04:51:46;;;;;;;2.90;2.70;;;;;;;;;;5051338;28;20231;-65
2023/07/09 04:54:14;;;;;;;2.80;2.60;;;;;;;;;;5067123;28;20276;-64
2023/07/09 04:56:44;;;;;;;3.45;2.47;;;;;;;;;;5064352;28;20294;-64
2023/07/09 04:59:11;;;;;;;2.67;2.50;;;;;;;;;;5067013;28;20661;-64
2023/07/09 05:01:39;;;;;;;3.58;2.47;;;;;;;;;;5066507;28;20199;-65
2023/07/09 05:04:07;;;;;;;2.67;2.47;;;;;;;;;;5065722;28;20297;-65
2023/07/09 05:06:36;;;;;;;3.00;2.80;;;;;;;;;;5052829;28;20215;-64
2023/07/09 05:09:03;;;;;;;2.58;2.38;;;;;;;;;;5047442;28;20219;-64
2023/07/09 05:11:30;;;;;;;3.88;2.45;;;;;;;;;;5047977;28;20248;-64
2023/07/09 05:13:57;;;;;;;3.20;2.47;;;;;;;;;;5046600;28;20261;-65
2023/07/09 05:16:24;;;;;;;3.30;2.38;;;;;;;;;;5046685;28;20215;-65
2023/07/09 05:18:52;;;;;;;2.67;2.47;;;;;;;;;;5059747;28;20579;-65
2023/07/09 05:21:19;;;;;;;2.38;2.17;;;;;;;;;;5065295;28;20237;-64
2023/07/09 05:23:46;;;;;;;2.35;2.20;;;;;;;;;;5063138;28;20677;-65
2023/07/09 05:26:13;;;;;;;3.72;2.78;;;;;;;;;;5064923;28;20195;-64
2023/07/09 05:28:40;;;;;;;4.97;2.47;;;;;;;;;;5066560;28;20232;-64
2023/07/09 05:31:07;;;;;;;2.50;2.40;;;;;;;;;;5063249;28;20466;-64
2023/07/09 05:33:34;;;;;;;2.80;2.42;;;;;;;;;;5065982;28;20215;-64
2023/07/09 05:36:03;;;;;;;4.00;2.92;;;;;;;;;;5065768;28;20238;-64
2023/07/09 05:38:30;;;;;;;3.03;2.60;;;;;;;;;;5066278;28;20214;-65
2023/07/09 05:41:02;;;;;;;2.60;2.50;;;;;;;;;;5060697;28;20583;-65
2023/07/09 05:43:29;;;;;;;3.03;2.67;;;;;;;;;;5046254;28;20289;-64
2023/07/09 05:45:56;;;;;;;2.50;2.40;;;;;;;;;;5048327;28;20208;-64
2023/07/09 05:48:23;;;;;;;3.00;2.80;;;;;;;;;;5065969;28;20211;-64
2023/07/09 05:50:55;;;;;;;3.42;2.83;;;;;;;;;;5066012;28;20207;-65
2023/07/09 05:53:24;;;;;;;2.95;2.80;;;;;;;;;;5060109;28;20318;-65
2023/07/09 05:55:54;;;;;;;2.38;2.28;;;;;;;;;;5062876;28;20692;-65
2023/07/09 05:58:21;;;;;;;2.88;2.70;;;;;;;;;;5066298;28;20262;-65
2023/07/09 06:00:53;;;;;;;2.60;2.40;;;;;;;;;;5065312;28;20199;-65
2023/07/09 06:03:21;;;;;;;3.38;2.80;;;;;;;;;;5065785;28;20235;-65
2023/07/09 06:05:49;;;;;;;3.28;2.97;;;;;;;;;;5058840;28;20294;-65
2023/07/09 06:08:16;;;;;;;3.63;2.58;;;;;;;;;;5067807;28;20724;-65
2023/07/09 06:10:52;;;;;;;3.28;3.00;;;;;;;;;;5063841;28;20219;-65
2023/07/09 06:13:20;;;;;;;4.90;2.50;;;;;;;;;;5049712;28;20283;-65
2023/07/09 06:15:47;;;;;;;4.65;2.75;;;;;;;;;;5065739;28;20305;-65
2023/07/09 06:18:14;;;;;;;2.70;2.50;;;;;;;;;;5089884;28;20210;-65
2023/07/09 06:20:41;;;;;;;2.78;2.58;;;;;;;;;;5063026;28;20199;-65
2023/07/09 06:23:08;;;;;;;3.05;2.75;;;;;;;;;;5069459;28;20210;-65
2023/07/09 06:25:35;;;;;;;2.70;2.50;;;;;;;;;;5069720;28;20741;-66
2023/07/09 06:28:04;;;;;;;2.55;2.35;;;;;;;;;;5069382;28;20210;-66
2023/07/09 06:30:31;;;;;;;2.67;2.50;;;;;;;;;;5056227;28;20891;-65
2023/07/09 06:32:58;;;;;;;2.78;2.67;;;;;;;;;;5059388;28;20284;-65
2023/07/09 06:35:25;;;;;;;2.45;2.35;;;;;;;;;;5052386;28;20670;-65
2023/07/09 06:37:52;;;;;;;2.60;2.50;;;;;;;;;;5059368;28;20262;-65
2023/07/09 06:40:19;;;;;;;2.35;2.25;;;;;;;;;;5060688;28;20206;-65
2023/07/09 06:42:46;;;;;;;2.75;2.55;;;;;;;;;;5068968;28;20466;-65
2023/07/09 06:45:14;;;;;;;2.45;2.13;;;;;;;;;;5064456;28;20199;-65
2023/07/09 06:47:41;;;;;;;2.60;2.22;;;;;;;;;;5067369;28;20906;-65
2023/07/09 06:50:08;;;;;;;2.60;2.40;;;;;;;;;;5069223;28;20223;-65
2023/07/09 06:52:35;;;;;;;2.88;2.58;;;;;;;;;;5069120;28;20610;-65
2023/07/09 06:55:02;;;;;;;2.42;2.33;;;;;;;;;;5068565;28;20203;-65
2023/07/09 06:57:29;;;;;;;3.28;2.20;;;;;;;;;;5069009;28;20238;-65
2023/07/09 06:59:56;;;;;;;3.22;2.30;;;;;;;;;;5066930;28;20215;-65
2023/07/09 07:02:25;;;;;;;2.60;2.28;;;;;;;;;;5068777;28;20203;-65
2023/07/09 07:04:52;;;;;;;2.63;2.13;;;;;;;;;;5067877;28;20333;-65
2023/07/09 07:07:19;;;;;;;4.15;2.70;;;;;;;;;;5066989;28;20213;-65
2023/07/09 07:09:46;;;;;;;2.90;2.70;;;;;;;;;;5068685;28;20693;-65
2023/07/09 07:12:14;;;;;;;4.45;2.75;;;;;;;;;;5068605;28;20234;-65
2023/07/09 07:14:41;;;;;;;3.25;2.53;;;;;;;;;;5067075;28;20315;-64
2023/07/09 07:17:08;;;;;;;2.67;2.58;;;;;;;;;;5052920;28;20203;-64
2023/07/09 07:19:37;;;;;;;4.57;2.97;;;;;;;;;;5048295;28;20268;-61
2023/07/09 07:22:06;;;;;;;2.75;2.40;;;;;;;;;;5048216;28;20677;-58
2023/07/09 07:24:33;;;;;;;3.25;3.05;;;;;;;;;;5051707;28;20280;-60
2023/07/09 07:27:00;;;;;;;2.45;2.38;;;;;;;;;;5048694;28;20619;-60
2023/07/09 07:29:27;;;;;;;4.63;3.05;;;;;;;;;;5062058;28;20558;-59
2023/07/09 07:31:55;;;;;;;3.03;2.83;;;;;;;;;;5059527;28;20215;-59
2023/07/09 07:34:22;;;;;;;3.75;2.88;;;;;;;;;;5056049;28;20206;-59
2023/07/09 07:36:51;;;;;;;3.17;2.97;;;;;;;;;;5068465;28;20211;-59
2023/07/09 07:39:18;;;;;;;2.63;2.42;;;;;;;;;;5051865;28;20199;-59
2023/07/09 07:41:45;;;;;;;3.13;2.78;;;;;;;;;;5048308;28;20633;-59
2023/07/09 07:44:12;;;;;;;2.90;2.70;;;;;;;;;;5064275;28;20233;-60
2023/07/09 07:46:39;;;;;;;2.90;2.70;;;;;;;;;;5067850;28;20881;-60
2023/07/09 07:49:06;;;;;;;4.78;2.40;;;;;;;;;;5068424;28;20214;-60
2023/07/09 07:51:33;;;;;;;3.15;2.78;;;;;;;;;;5068168;28;20210;-60
2023/07/09 07:54:02;;;;;;;2.75;2.55;;;;;;;;;;5067450;28;20264;-60
2023/07/09 07:56:29;;;;;;;2.42;2.33;;;;;;;;;;5068402;28;20215;-60
2023/07/09 07:58:56;;;;;;;3.33;2.80;;;;;;;;;;5058031;28;20276;-60
2023/07/09 08:01:23;;;;;;;4.50;3.38;;;;;;;;;;5048628;28;20211;-60
2023/07/09 08:04:08;;;;;;;3.67;3.38;;;;;;;;;;5055526;28;20600;-58
2023/07/09 08:06:35;;;;;;;3.85;3.50;;;;;;;;;;5067627;28;20206;-58
2023/07/09 08:09:04;;;;;;;3.08;2.80;;;;;;;;;;5059305;28;20203;-59
2023/07/09 08:11:32;;;;;;;2.85;2.58;;;;;;;;;;5062278;28;20778;-59
2023/07/09 08:13:59;;;;;;;2.88;2.67;;;;;;;;;;5058962;28;20665;-58
2023/07/09 08:16:26;;;;;;;4.03;2.75;;;;;;;;;;5049186;28;20214;-64
2023/07/09 08:18:54;;;;;;;3.15;2.50;;;;;;;;;;5062529;28;20253;-62
2023/07/09 08:21:21;;;;;;;3.80;3.22;;;;;;;;;;5049425;28;20203;-64
2023/07/09 08:23:48;;;;;;;3.60;3.30;;;;;;;;;;5053566;28;20198;-62
2023/07/09 08:26:16;;;;;;;3.67;2.83;;;;;;;;;;5054096;28;20284;-63
2023/07/09 08:28:43;;;;;;;2.80;2.60;;;;;;;;;;5048453;28;20207;-62
2023/07/09 08:31:11;;;;;;;3.30;3.10;;;;;;;;;;5067312;28;20210;-59
2023/07/09 08:33:39;;;;;;;2.85;2.53;;;;;;;;;;5067566;28;20234;-59
2023/07/09 08:36:06;;;;;;;3.40;2.97;;;;;;;;;;5067793;28;20242;-59
2023/07/09 08:38:34;;;;;;;2.78;2.58;;;;;;;;;;5067098;28;20787;-59
2023/07/09 08:41:02;;;;;;;2.67;2.47;;;;;;;;;;5063140;28;20290;-59
2023/07/09 08:43:41;;;;;;;3.75;3.40;;;;;;;;;;5058613;28;20310;-60
2023/07/09 08:46:11;;;;;;;3.70;3.40;;;;;;;;;;5055081;28;20268;-59
2023/07/09 08:48:40;;;;;;;3.38;3.08;;;;;;;;;;5053206;28;20221;-58
2023/07/09 08:51:11;;;;;;;2.80;2.70;;;;;;;;;;5046249;28;20206;-59
2023/07/09 08:53:40;;;;;;;2.80;2.63;;;;;;;;;;5062828;28;20256;-58
2023/07/09 08:56:09;;;;;;;3.15;2.95;;;;;;;;;;5052834;28;20635;-61
2023/07/09 08:58:38;;;;;;;2.90;2.70;;;;;;;;;;5049176;28;20211;-60
2023/07/09 09:01:06;;;;;;;2.53;2.42;;;;;;;;;;5047681;28;20218;-60
2023/07/09 09:03:38;;;;;;;3.00;2.75;;;;;;;;;;5056476;28;20207;-59
2023/07/09 09:06:11;;;;;;;3.30;3.05;;;;;;;;;;5057524;28;20238;-59
2023/07/09 09:08:40;;;;;;;2.97;2.78;;;;;;;;;;5052031;28;20615;-59
2023/07/09 09:11:12;;;;;;;3.30;3.03;;;;;;;;;;5051420;28;20218;-60
2023/07/09 09:13:41;;;;;;;3.45;3.05;;;;;;;;;;5059660;28;20234;-59
2023/07/09 09:16:12;;;;;;;3.40;3.03;;;;;;;;;;5059020;28;20204;-65
2023/07/09 09:18:42;;;;;;;3.63;3.22;;;;;;;;;;5053258;28;20207;-58
2023/07/09 09:21:15;;;;;;;3.50;3.03;;;;;;;;;;5057635;28;20203;-60
2023/07/09 09:23:46;;;;;;;2.88;2.67;;;;;;;;;;5059788;28;20672;-59
2023/07/09 09:26:18;;;;;;;5.13;3.20;;;;;;;;;;5067056;28;20218;-59
2023/07/09 09:28:46;;;;;;;2.97;2.67;;;;;;;;;;5062954;28;20302;-59
2023/07/09 09:31:14;;;;;;;3.10;2.90;;;;;;;;;;5056218;28;20757;-59
2023/07/09 09:33:44;;;;;;;3.50;2.60;;;;;;;;;;5064780;28;20226;-62
2023/07/09 09:36:16;;;;;;;2.63;2.53;;;;;;;;;;5057451;28;20206;-60
2023/07/09 09:38:43;;;;;;;2.50;2.40;;;;;;;;;;5045565;28;20226;-59
2023/07/09 09:41:14;;;;;;;3.00;2.72;;;;;;;;;;5050771;28;20234;-60
2023/07/09 09:43:43;;;;;;;2.67;2.55;;;;;;;;;;5060576;28;20241;-60
2023/07/09 09:46:17;;;;;;;3.17;2.88;;;;;;;;;;5062935;28;20206;-59
2023/07/09 09:48:46;;;;;;;3.28;2.90;;;;;;;;;;5068644;28;20968;-59
2023/07/09 09:51:14;;;;;;;2.95;2.72;;;;;;;;;;5059351;28;20213;-60
2023/07/09 09:53:42;;;;;;;3.20;2.90;;;;;;;;;;5054479;28;20305;-60
2023/07/09 09:56:14;;;;;;;3.10;2.85;;;;;;;;;;5062838;28;20288;-60
2023/07/09 09:58:42;;;;;;;3.03;2.83;;;;;;;;;;5056021;28;20264;-60
2023/07/09 10:01:15;;;;;;;2.95;2.65;;;;;;;;;;5069443;28;20653;-60
2023/07/09 10:03:44;;;;;;;2.80;2.42;;;;;;;;;;5070163;28;20206;-60
2023/07/09 10:06:14;;;;;;;3.13;2.70;;;;;;;;;;5058573;28;20245;-60
2023/07/09 10:08:49;;;;;;;2.75;2.55;;;;;;;;;;5050753;28;20207;-60
2023/07/09 10:11:19;;;;;;;2.53;2.42;;;;;;;;;;5060341;28;20203;-60
2023/07/09 10:13:47;;;;;;;2.67;2.47;;;;;;;;;;5054885;28;20256;-59
2023/07/09 10:16:21;;;;;;;3.20;2.90;;;;;;;;;;5065356;28;20206;-60
2023/07/09 10:18:53;;;;;;;3.38;2.65;;;;;;;;;;5068889;28;20210;-60
2023/07/09 10:21:25;;;;;;;4.00;2.60;;;;;;;;;;5063998;28;20214;-59
2023/07/09 10:23:55;;;;;;;3.40;3.10;;;;;;;;;;5067398;28;20268;-60
2023/07/09 10:26:26;;;;;;;3.17;3.08;;;;;;;;;;5063914;28;20198;-61
2023/07/09 10:29:18;;;;;;;2.90;2.70;;;;;;;;;;5056842;28;20217;-60
2023/07/09 10:31:52;;;;;;;2.65;2.50;;;;;;;;;;5056220;28;20677;-60
2023/07/09 10:34:23;;;;;;;2.85;2.65;;;;;;;;;;5053890;28;20371;-60
2023/07/09 10:37:02;;;;;;;2.65;2.30;;;;;;;;;;5059670;28;20199;-60
2023/07/09 10:39:32;;;;;;;3.47;3.22;;;;;;;;;;5056592;28;20237;-60
2023/07/09 10:42:01;;;;;;;2.30;2.20;;;;;;;;;;5055291;28;20302;-60
2023/07/09 10:44:31;;;;;;;3.03;2.83;;;;;;;;;;5051880;28;20209;-60
2023/07/09 10:47:02;;;;;;;2.30;2.20;;;;;;;;;;5046760;28;20214;-60
2023/07/09 10:49:33;;;;;;;2.55;2.20;;;;;;;;;;5059436;28;20218;-60
2023/07/09 10:52:06;;;;;;;2.63;2.50;;;;;;;;;;5058286;28;20676;-61
2023/07/09 10:54:35;;;;;;;3.13;2.92;;;;;;;;;;5052641;28;20222;-60
2023/07/09 10:57:04;;;;;;;2.60;2.50;;;;;;;;;;5056678;28;20691;-60
2023/07/09 10:59:33;;;;;;;2.78;2.30;;;;;;;;;;5068792;28;20729;-60
2023/07/09 11:02:08;;;;;;;1.88;1.85;;;;;;;;;;5060097;28;20262;-59
2023/07/09 11:04:40;;;;;;;2.80;2.70;;;;;;;;;;5053368;28;20348;-60
2023/07/09 11:07:11;;;;;;;2.58;2.38;;;;;;;;;;5067915;28;20202;-62
2023/07/09 11:09:40;;;;;;;2.42;2.30;;;;;;;;;;5057374;28;20540;-60
2023/07/09 11:12:10;;;;;;;3.38;2.65;;;;;;;;;;5065216;28;20305;-62
2023/07/09 11:14:40;;;;;;;2.50;2.30;;;;;;;;;;5064576;28;20230;-62
2023/07/09 11:17:14;;;;;;;2.03;1.92;;;;;;;;;;5057388;28;20213;-62
2023/07/09 11:19:43;;;;;;;5.30;2.28;;;;;;;;;;5067284;28;20206;-65
2023/07/09 11:22:17;;;;;;;2.20;2.00;;;;;;;;;;5062290;28;20202;-65
2023/07/09 11:24:47;;;;;;;3.42;2.20;;;;;;;;;;5065011;28;20720;-65
2023/07/09 11:27:18;;;;;;;2.75;2.65;;;;;;;;;;5068620;28;20203;-66
2023/07/09 11:29:47;;;;;;;2.10;2.00;;;;;;;;;;5064853;28;20650;-65
2023/07/09 11:32:21;;;;;;;2.20;2.00;;;;;;;;;;5055260;28;20211;-64
2023/07/09 11:34:48;;;;;;;2.60;2.50;;;;;;;;;;5066076;28;20226;-61
2023/07/09 11:37:15;;;;;;;1.85;1.85;;;;;;;;;;5053764;28;20620;-59
2023/07/09 11:39:47;;;;;;;2.88;2.78;;;;;;;;;;5057831;28;20599;-59
2023/07/09 11:42:28;;;;;;;2.33;2.22;;;;;;;;;;5067817;28;20244;-59
2023/07/09 11:44:58;;;;;;;3.78;2.13;;;;;;;;;;5068956;28;20632;-59
2023/07/09 11:47:30;;;;;;;2.10;2.00;;;;;;;;;;5068751;28;20301;-59
2023/07/09 11:49:58;;;;;;;2.30;2.10;;;;;;;;;;5067903;28;20297;-59
2023/07/09 11:52:28;;;;;;;2.03;1.92;;;;;;;;;;5068928;28;20293;-59
2023/07/09 11:54:55;;;;;;;2.63;2.08;;;;;;;;;;5067621;28;20222;-59
2023/07/09 11:57:22;;;;;;;2.05;1.95;;;;;;;;;;5068692;28;20259;-59
2023/07/09 11:59:49;;;;;;;3.55;2.40;;;;;;;;;;5068502;28;20210;-59
2023/07/09 12:02:18;;;;;;;2.13;2.03;;;;;;;;;;5068641;28;20229;-59
2023/07/09 12:04:49;;;;;;;2.45;2.28;;;;;;;;;;5065482;28;20325;-59
2023/07/09 12:07:17;;;;;;;2.03;1.90;;;;;;;;;;5059733;28;20289;-59
2023/07/09 12:09:49;;;;;;;2.88;1.92;;;;;;;;;;5067886;28;20701;-59
2023/07/09 12:12:20;;;;;;;2.28;2.17;;;;;;;;;;5067948;28;20302;-60
2023/07/09 12:14:47;;;;;;;2.00;1.90;;;;;;;;;;5066262;28;20230;-59
2023/07/09 12:17:14;;;;;;;2.05;2.00;;;;;;;;;;5051746;28;20229;-60
2023/07/09 12:19:41;;;;;;;2.00;2.00;;;;;;;;;;5060059;28;20206;-61
2023/07/09 12:22:12;;;;;;;2.15;2.15;;;;;;;;;;5055494;28;20210;-61
2023/07/09 12:24:43;;;;;;;2.97;2.15;;;;;;;;;;5048611;28;20962;-60
2023/07/09 12:27:18;;;;;;;3.63;2.10;;;;;;;;;;5065024;28;20210;-60
2023/07/09 12:29:45;;;;;;;2.30;2.10;;;;;;;;;;5058145;28;20213;-60
2023/07/09 12:32:13;;;;;;;3.33;2.30;;;;;;;;;;5049813;28;20207;-62
2023/07/09 12:34:40;;;;;;;2.65;2.40;;;;;;;;;;5048150;28;20261;-62
2023/07/09 12:37:13;;;;;;;2.30;2.20;;;;;;;;;;5067481;28;20206;-62
2023/07/09 12:39:40;;;;;;;2.28;2.17;;;;;;;;;;5066730;28;20209;-62
2023/07/09 12:42:14;;;;;;;4.78;2.05;;;;;;;;;;5067536;28;20214;-61
2023/07/09 12:44:41;;;;;;;2.60;2.40;;;;;;;;;;5066254;28;20838;-61
2023/07/09 12:47:14;;;;;;;2.15;2.05;;;;;;;;;;5063965;28;20211;-61
2023/07/09 12:49:42;;;;;;;2.17;2.08;;;;;;;;;;5065408;28;20297;-61
2023/07/09 12:52:13;;;;;;;3.63;2.50;;;;;;;;;;5048848;28;20246;-62
2023/07/09 12:54:40;;;;;;;2.72;2.15;;;;;;;;;;5056682;28;20230;-62
2023/07/09 12:57:16;;;;;;;3.03;2.40;;;;;;;;;;5053286;28;20760;-61
2023/07/09 12:59:43;;;;;;;3.90;2.38;;;;;;;;;;5061167;28;20210;-62
2023/07/09 13:02:15;;;;;;;2.05;1.95;;;;;;;;;;5065378;28;20206;-62
2023/07/09 13:04:42;;;;;;;3.30;3.10;;;;;;;;;;5066718;28;20234;-61
2023/07/09 13:07:26;;;;;;;2.33;2.15;;;;;;;;;;5058687;28;20215;-62
2023/07/09 13:09:54;;;;;;;2.25;1.90;;;;;;;;;;5047191;28;20720;-60
2023/07/09 13:12:22;;;;;;;2.13;2.03;;;;;;;;;;5066731;28;20213;-59
2023/07/09 13:14:54;;;;;;;2.25;2.10;;;;;;;;;;5066013;28;20696;-60
2023/07/09 13:17:43;;;;;;;2.15;2.15;;;;;;;;;;5047049;28;20214;-61
2023/07/09 13:20:10;;;;;;;1.67;1.67;;;;;;;;;;5042411;28;20320;-60
2023/07/09 13:22:38;;;;;;;4.10;2.30;;;;;;;;;;5067041;28;20860;-60
2023/07/09 13:25:06;;;;;;;2.10;2.00;;;;;;;;;;5067098;28;20218;-60
2023/07/09 13:27:33;;;;;;;2.80;2.42;;;;;;;;;;5048808;28;20298;-59
2023/07/09 13:30:00;;;;;;;2.55;2.40;;;;;;;;;;5061473;28;20202;-59
2023/07/09 13:32:27;;;;;;;2.20;2.10;;;;;;;;;;5043407;28;20473;-60
2023/07/09 13:34:54;;;;;;;2.40;2.15;;;;;;;;;;5046074;28;20223;-60
2023/07/09 13:37:21;;;;;;;2.22;2.03;;;;;;;;;;5064510;28;20680;-60
2023/07/09 13:39:49;;;;;;;2.80;2.60;;;;;;;;;;5065970;28;20205;-60
2023/07/09 13:42:18;;;;;;;2.00;1.90;;;;;;;;;;5065584;28;20738;-59
2023/07/09 13:44:46;;;;;;;2.80;2.70;;;;;;;;;;5050608;28;20206;-60
2023/07/09 13:47:16;;;;;;;2.65;2.50;;;;;;;;;;5063294;28;20202;-60
2023/07/09 13:49:43;;;;;;;2.35;2.35;;;;;;;;;;5049934;28;20708;-60
2023/07/09 13:52:15;;;;;;;2.47;2.28;;;;;;;;;;5064394;28;20252;-60
2023/07/09 13:54:42;;;;;;;3.10;1.98;;;;;;;;;;5065520;28;20320;-58
2023/07/09 13:57:14;;;;;;;2.30;2.20;;;;;;;;;;5065627;28;20256;-61
2023/07/09 13:59:41;;;;;;;2.28;2.17;;;;;;;;;;5065166;28;20652;-60
2023/07/09 14:02:18;;;;;;;2.47;2.00;;;;;;;;;;5064303;28;20283;-57
2023/07/09 14:04:45;;;;;;;3.35;2.00;;;;;;;;;;5064937;28;20245;-59
2023/07/09 14:07:21;;;;;;;2.33;2.13;;;;;;;;;;5061203;28;20198;-61
2023/07/09 14:09:48;;;;;;;4.15;2.20;;;;;;;;;;5065321;28;20225;-61
2023/07/09 14:12:17;;;;;;;1.95;1.85;;;;;;;;;;5062189;28;20206;-63
2023/07/09 14:14:45;;;;;;;1.90;1.90;;;;;;;;;;5063079;28;20222;-62
2023/07/09 14:17:13;;;;;;;2.30;2.20;;;;;;;;;;5062944;28;20225;-62
2023/07/09 14:19:40;;;;;;;2.10;2.00;;;;;;;;;;5049817;28;20215;-62
2023/07/09 14:22:20;;;;;;;2.53;2.33;;;;;;;;;;5059366;28;20734;-62
2023/07/09 14:24:48;;;;;;;2.38;2.25;;;;;;;;;;5065138;28;20198;-62
2023/07/09 14:27:16;;;;;;;2.75;2.55;;;;;;;;;;5064754;28;20737;-62
2023/07/09 14:29:43;;;;;;;2.20;1.92;;;;;;;;;;5067087;28;20409;-63
2023/07/09 14:32:22;;;;;;;1.98;1.88;;;;;;;;;;5055621;28;20284;-61
2023/07/09 14:34:49;;;;;;;2.28;2.15;;;;;;;;;;5048279;28;20914;-62
2023/07/09 14:37:16;;;;;;;3.90;2.38;;;;;;;;;;5064101;28;20382;-61
2023/07/09 14:39:44;;;;;;;2.22;2.10;;;;;;;;;;5067959;28;20210;-63
2023/07/09 14:42:13;;;;;;;2.72;2.17;;;;;;;;;;5067835;28;20321;-62
2023/07/09 14:44:41;;;;;;;1.90;1.90;;;;;;;;;;5068098;28;20310;-63
2023/07/09 14:47:13;;;;;;;2.08;1.98;;;;;;;;;;5067052;28;20685;-62
2023/07/09 14:49:40;;;;;;;2.33;1.98;;;;;;;;;;5066981;28;20206;-63
2023/07/09 14:52:11;;;;;;;1.85;1.75;;;;;;;;;;5066064;28;20206;-64
2023/07/09 14:54:38;;;;;;;2.80;2.13;;;;;;;;;;5067145;28;20218;-64